Terminal Aerodrome Forecast
Issued by NWS

Home | Current Version | Previous Version | Text Only | Print | Product List | Glossary On
Versions: 1 2 3 4 5 6 7 8 9 10 11 12 13 14 15 16
852
FTUS46 KMFR 231144
TAFOTH
TAF
KOTH 231144Z 2312/2412 17006KT P6SM SKC
     FM231700 17008KT P6SM SCT100
     FM240000 20009KT P6SM OVC040
     FM240400 16010KT P6SM -RA SCT020 OVC040=

USA.gov is the U.S. government's official web portal to all federal, state and local government web resources and services.